Time;durP1;ratioP1;P1;durP2;ratioP2;P2;SDS_P1;SDS_P2;PMS_P1;PMS_P2;Temp;Humidity;BMP_temperature;BMP_pressure;BME280_temperature;BME280_humidity;BME280_pressure;Samples;Min_cycle;Max_cycle;Signal;HPM_P1;HPM_P2
2024/04/17 00:02:00;;;;;;;21.40;11.30;;;5.70;99.90;;;9.17;100.00;99865.81;5332933;26;20064;-79
2024/04/17 00:04:26;;;;;;;20.90;11.57;;;5.80;99.90;;;9.42;100.00;99898.44;5343504;26;20005;-79
2024/04/17 00:06:52;;;;;;;16.65;10.68;;;5.80;99.90;;;9.66;100.00;99868.56;5371949;26;19998;-78
2024/04/17 00:09:18;;;;;;;18.00;10.40;;;5.80;99.90;;;9.49;100.00;99835.72;5379326;26;20001;-80
2024/04/17 00:11:44;;;;;;;17.20;11.10;;;5.80;99.90;;;9.40;100.00;99888.81;5350965;26;20432;-79
2024/04/17 00:14:12;;;;;;;19.63;11.43;;;5.90;99.90;;;8.99;100.00;99870.19;5323798;26;20002;-79
2024/04/17 00:16:38;;;;;;;21.70;10.85;;;5.90;99.90;;;9.82;100.00;99872.56;5317096;26;20005;-78
2024/04/17 00:19:04;;;;;;;20.98;11.30;;;5.90;99.90;;;10.37;100.00;99881.63;5325051;26;20005;-79
2024/04/17 00:21:31;;;;;;;17.65;10.40;;;5.90;99.90;;;10.29;100.00;99871.88;5339515;26;19993;-79
2024/04/17 00:23:57;;;;;;;20.05;11.27;;;5.90;99.90;;;9.76;100.00;99871.59;5342556;26;20002;-79
2024/04/17 00:26:23;;;;;;;18.30;10.50;;;5.90;99.90;;;9.64;100.00;99887.88;5315826;26;20008;-79
2024/04/17 00:28:50;;;;;;;23.83;11.55;;;5.90;99.90;;;9.84;100.00;99845.09;5344293;26;20056;-79
2024/04/17 00:31:16;;;;;;;23.92;11.60;;;5.90;99.90;;;9.74;100.00;99883.78;5357801;26;20009;-79
2024/04/17 00:33:42;;;;;;;17.27;10.77;;;5.90;99.90;;;9.59;100.00;99876.84;5316703;26;20035;-79
2024/04/17 00:36:08;;;;;;;20.58;10.90;;;5.90;99.90;;;9.88;100.00;99863.47;5347670;26;19998;-79
2024/04/17 00:38:34;;;;;;;18.80;11.27;;;5.90;99.90;;;9.49;100.00;99879.28;5333167;26;20078;-79
2024/04/17 00:41:00;;;;;;;16.20;10.73;;;5.90;99.90;;;9.77;100.00;99884.16;5326458;26;20333;-78
2024/04/17 00:43:27;;;;;;;18.38;11.00;;;5.90;99.90;;;9.12;100.00;99838.47;5342824;26;20013;-78
2024/04/17 00:45:54;;;;;;;16.58;10.25;;;5.90;99.90;;;9.86;100.00;99838.34;5354192;26;19997;-79
2024/04/17 00:48:22;;;;;;;20.02;11.57;;;5.90;99.90;;;9.36;100.00;99880.25;5364262;26;20016;-79
2024/04/17 00:50:53;;;;;;;18.85;10.85;;;5.90;99.90;;;9.88;100.00;99874.38;5388512;26;20000;-79
2024/04/17 00:53:26;;;;;;;16.33;10.02;;;5.90;99.90;;;9.15;100.00;99867.94;5381045;26;20013;-78
2024/04/17 00:55:55;;;;;;;20.40;10.95;;;5.90;99.90;;;9.30;100.00;99884.75;5336951;26;20001;-78
2024/04/17 00:58:22;;;;;;;19.77;10.15;;;5.90;99.90;;;9.68;100.00;99882.81;5327552;26;20333;-78
2024/04/17 01:00:49;;;;;;;17.45;9.70;;;5.90;99.90;;;9.45;100.00;99878.06;5315750;26;20325;-79
2024/04/17 01:03:15;;;;;;;17.77;9.45;;;5.90;99.90;;;9.53;100.00;99893.28;5315998;26;20011;-79
2024/04/17 01:05:42;;;;;;;17.77;10.50;;;5.90;99.90;;;10.09;100.00;99874.91;5359139;26;20002;-80
2024/04/17 01:08:10;;;;;;;20.85;9.93;;;5.90;99.90;;;9.54;100.00;99871.25;5315734;26;20001;-79
2024/04/17 01:10:36;;;;;;;23.73;10.27;;;5.90;99.90;;;9.41;100.00;99885.03;5323841;26;20013;-78
2024/04/17 01:13:03;;;;;;;19.40;9.25;;;5.90;99.90;;;9.62;100.00;99884.56;5328413;26;20013;-78
2024/04/17 01:15:30;;;;;;;19.27;9.57;;;5.90;99.90;;;8.99;100.00;99845.72;5328259;26;20042;-78
2024/04/17 01:18:00;;;;;;;18.65;9.00;;;5.90;99.90;;;9.74;100.00;99872.88;5352829;26;20005;-79
2024/04/17 01:20:26;;;;;;;17.38;9.52;;;5.90;99.90;;;9.35;100.00;99879.44;5316100;26;20008;-79
2024/04/17 01:22:53;;;;;;;21.98;9.45;;;5.80;99.90;;;9.30;100.00;99830.31;5351488;26;20034;-78
2024/04/17 01:25:19;;;;;;;19.90;9.77;;;5.80;99.90;;;8.67;100.00;99843.13;5338484;26;20002;-77
2024/04/17 01:27:46;;;;;;;16.25;8.98;;;5.80;99.90;;;9.29;100.00;99874.91;5313937;26;20020;-79
2024/04/17 01:30:13;;;;;;;18.20;9.48;;;5.70;99.90;;;8.93;100.00;99865.66;5322458;26;19997;-79
2024/04/17 01:32:43;;;;;;;18.52;8.98;;;5.70;99.90;;;8.99;100.00;99874.81;5324217;26;20393;-79
2024/04/17 01:35:09;;;;;;;22.15;9.88;;;5.70;99.90;;;9.17;100.00;99874.00;5317673;26;20001;-78
2024/04/17 01:37:35;;;;;;;19.15;9.73;;;5.60;99.90;;;9.02;100.00;99869.78;5326049;26;20005;-78
2024/04/17 01:40:01;;;;;;;21.90;10.40;;;5.60;99.90;;;9.48;100.00;99877.59;5316205;26;20075;-79
2024/04/17 01:42:28;;;;;;;20.50;10.38;;;5.60;99.90;;;9.08;100.00;99881.63;5327857;26;20450;-79
2024/04/17 01:44:54;;;;;;;20.60;9.40;;;5.60;99.90;;;8.70;100.00;99880.72;5337686;26;20089;-78
2024/04/17 01:47:20;;;;;;;19.33;10.23;;;5.60;99.90;;;9.15;100.00;99870.66;5327827;26;20002;-79
2024/04/17 01:49:47;;;;;;;24.80;10.60;;;5.50;99.90;;;8.96;100.00;99856.22;5349240;26;20016;-78
2024/04/17 01:52:14;;;;;;;18.80;11.00;;;5.50;99.90;;;9.05;100.00;99880.19;5330184;26;20002;-79
2024/04/17 01:54:43;;;;;;;20.85;10.85;;;5.50;99.90;;;9.25;100.00;99884.56;5312118;26;20017;-78
2024/04/17 01:57:10;;;;;;;25.25;11.07;;;5.50;99.90;;;9.05;100.00;99817.63;5376403;26;20409;-80
2024/04/17 01:59:37;;;;;;;26.55;10.73;;;5.50;99.90;;;9.29;100.00;99857.75;5321247;26;20385;-78
2024/04/17 02:02:04;;;;;;;20.27;10.52;;;5.50;99.90;;;9.56;100.00;99871.88;5315363;26;20036;-80
2024/04/17 02:04:32;;;;;;;21.85;10.90;;;5.50;99.90;;;9.18;100.00;99867.50;5342436;26;19997;-79
2024/04/17 02:06:58;;;;;;;23.17;10.80;;;5.50;99.90;;;9.44;100.00;99865.50;5313173;26;20005;-80
2024/04/17 02:09:24;;;;;;;22.80;11.07;;;5.50;99.90;;;9.42;100.00;99822.19;5326322;26;19997;-81
2024/04/17 02:11:51;;;;;;;21.35;11.00;;;5.50;99.90;;;9.15;100.00;99868.78;5323397;26;20018;-79
2024/04/17 02:14:17;;;;;;;18.98;11.02;;;5.50;99.90;;;8.67;100.00;99881.19;5326057;26;20001;-79
2024/04/17 02:16:43;;;;;;;25.08;11.55;;;5.40;99.90;;;8.31;100.00;99831.88;5313543;26;20002;-79
2024/04/17 02:19:09;;;;;;;21.23;10.88;;;5.40;99.90;;;8.67;100.00;99864.88;5313441;26;20006;-79
2024/04/17 02:21:36;;;;;;;21.25;10.60;;;5.40;99.90;;;8.78;100.00;99847.81;5359960;26;20005;-79
2024/04/17 02:24:02;;;;;;;19.80;10.35;;;5.30;99.90;;;8.78;100.00;99887.78;5324425;26;20001;-79
2024/04/17 02:26:28;;;;;;;21.70;11.07;;;5.30;99.90;;;8.38;100.00;99840.00;5320797;26;20012;-79
2024/04/17 02:28:56;;;;;;;22.73;9.73;;;5.30;99.90;;;8.82;100.00;99860.97;5332769;26;20044;-79
2024/04/17 02:31:23;;;;;;;22.92;10.63;;;5.20;99.90;;;8.47;100.00;99873.16;5352649;26;20051;-80
2024/04/17 02:33:49;;;;;;;18.63;10.38;;;5.20;99.90;;;8.72;100.00;99881.34;5347370;26;20573;-78
2024/04/17 02:36:15;;;;;;;20.83;9.55;;;5.20;99.90;;;8.40;100.00;99864.25;5312532;26;20006;-78
2024/04/17 02:38:41;;;;;;;17.75;9.27;;;5.10;99.90;;;8.30;100.00;99853.88;5339500;26;20047;-79
2024/04/17 02:41:08;;;;;;;19.58;9.52;;;5.00;99.90;;;7.99;100.00;99872.69;5364948;26;20077;-80
2024/04/17 02:43:34;;;;;;;19.88;9.52;;;5.10;99.90;;;7.73;100.00;99832.94;5322306;26;20001;-79
2024/04/17 02:46:01;;;;;;;23.67;10.05;;;5.10;99.90;;;8.19;100.00;99866.28;5314519;26;22195;-79
2024/04/17 02:48:28;;;;;;;21.20;9.07;;;5.00;99.90;;;8.33;100.00;99875.16;5341330;26;20037;-80
2024/04/17 02:50:54;;;;;;;18.42;9.90;;;4.90;99.90;;;8.06;100.00;99862.59;5316275;26;20001;-80
2024/04/17 02:53:20;;;;;;;27.95;10.40;;;4.90;99.90;;;7.49;100.00;99838.91;5346340;26;20001;-80
2024/04/17 02:55:47;;;;;;;23.67;9.38;;;5.00;99.90;;;7.80;100.00;99873.63;5352150;26;20013;-80
2024/04/17 02:58:14;;;;;;;22.60;9.52;;;4.90;99.90;;;7.82;100.00;99856.06;5353615;26;20002;-78
2024/04/17 03:00:41;;;;;;;23.42;9.88;;;4.90;99.90;;;8.02;100.00;99877.66;5336000;26;20014;-79
2024/04/17 03:03:07;;;;;;;26.77;10.15;;;4.90;99.90;;;7.56;100.00;99863.31;5321126;26;20468;-79
2024/04/17 03:05:34;;;;;;;26.38;8.68;;;5.00;99.90;;;8.11;100.00;99891.00;5343489;26;20016;-81
2024/04/17 03:08:01;;;;;;;21.15;8.52;;;4.90;99.90;;;8.18;100.00;99870.88;5348225;26;19996;-79
2024/04/17 03:10:28;;;;;;;18.17;8.25;;;4.80;99.90;;;7.98;100.00;99886.50;5322607;26;20017;-79
2024/04/17 03:12:55;;;;;;;25.40;9.00;;;4.70;99.90;;;7.60;100.00;99880.81;5317384;26;20013;-79
2024/04/17 03:15:22;;;;;;;19.50;8.13;;;4.70;99.90;;;8.26;100.00;99901.56;5328509;26;20053;-79
2024/04/17 03:17:49;;;;;;;24.02;7.93;;;4.60;99.90;;;7.82;100.00;99893.25;5324792;26;20013;-78
2024/04/17 03:20:15;;;;;;;23.92;7.97;;;4.50;99.90;;;7.65;100.00;99873.91;5317587;26;20001;-79
2024/04/17 03:22:42;;;;;;;21.25;7.65;;;4.50;99.90;;;7.51;100.00;99914.69;5323264;26;20013;-79
2024/04/17 03:25:08;;;;;;;26.38;7.50;;;4.50;99.90;;;7.18;100.00;99880.38;5329631;26;20009;-80
2024/04/17 03:27:35;;;;;;;17.88;7.25;;;4.40;99.90;;;7.77;100.00;99902.06;5345077;26;20012;-80
2024/04/17 03:30:01;;;;;;;21.83;7.07;;;4.40;99.90;;;7.53;100.00;99906.31;5357931;26;20013;-78
2024/04/17 03:32:27;;;;;;;16.98;6.93;;;4.40;99.90;;;7.36;100.00;99895.97;5324339;26;20042;-80
2024/04/17 03:34:54;;;;;;;17.05;6.95;;;4.40;99.90;;;7.25;100.00;99896.59;5316440;26;20370;-80
2024/04/17 03:37:20;;;;;;;19.55;7.47;;;4.30;99.90;;;7.04;100.00;99882.28;5316083;26;20053;-80
2024/04/17 03:39:46;;;;;;;21.23;7.10;;;4.40;99.90;;;7.60;100.00;99913.41;5342652;26;20456;-82
2024/04/17 03:42:13;;;;;;;19.05;6.90;;;4.30;99.90;;;7.94;100.00;99925.97;5366842;26;20369;-82
2024/04/17 03:44:39;;;;;;;19.58;7.70;;;4.20;99.90;;;7.99;100.00;99929.72;5344074;26;20001;-81
2024/04/17 03:47:06;;;;;;;17.00;6.28;;;4.10;99.90;;;8.17;100.00;99936.31;5316299;26;20026;-82
2024/04/17 03:49:32;;;;;;;23.40;7.07;;;4.10;99.90;;;8.08;100.00;99884.13;5323166;26;20453;-81
2024/04/17 03:51:58;;;;;;;21.02;7.63;;;4.00;99.90;;;8.03;100.00;99938.28;5316510;26;20001;-81
2024/04/17 03:54:25;;;;;;;20.05;7.07;;;4.00;99.90;;;7.89;100.00;99913.88;5315751;26;20012;-81
2024/04/17 03:56:51;;;;;;;18.17;6.40;;;4.00;99.90;;;8.11;100.00;99902.69;5335056;26;20076;-81
2024/04/17 03:59:19;;;;;;;22.67;6.88;;;4.00;99.90;;;8.57;100.00;99929.81;5327966;26;20006;-81
2024/04/17 04:02:06;;;;;;;19.50;6.85;;;4.00;99.90;;;8.21;100.00;99897.59;5334366;26;20012;-82
2024/04/17 04:04:32;;;;;;;19.67;6.70;;;3.90;99.90;;;8.23;100.00;99926.47;5355591;26;20405;-81
2024/04/17 04:06:58;;;;;;;22.17;6.60;;;3.90;99.90;;;8.24;100.00;99917.25;5329813;26;20005;-81
2024/04/17 04:09:25;;;;;;;22.35;6.63;;;3.90;99.90;;;8.46;100.00;99943.00;5374857;26;20323;-81
2024/04/17 04:11:51;;;;;;;19.48;6.60;;;3.80;99.90;;;8.24;100.00;99925.41;5319047;26;20016;-81
2024/04/17 04:14:17;;;;;;;18.42;6.20;;;3.80;99.90;;;7.95;100.00;99914.91;5317215;26;20041;-81
2024/04/17 04:16:45;;;;;;;19.05;5.95;;;3.70;99.90;;;8.41;100.00;99931.97;5317138;26;20013;-80
2024/04/17 04:19:11;;;;;;;15.77;6.68;;;3.70;99.90;;;8.05;100.00;99922.59;5317576;26;20012;-79
2024/04/17 04:21:37;;;;;;;20.17;6.00;;;3.60;99.90;;;8.15;100.00;99952.00;5387656;26;20015;-80
2024/04/17 04:24:04;;;;;;;23.17;6.63;;;3.60;99.90;;;7.72;100.00;99899.16;5358298;26;20013;-80
2024/04/17 04:26:30;;;;;;;18.50;6.20;;;3.60;99.90;;;7.75;100.00;99958.47;5368372;26;20016;-80
2024/04/17 04:28:56;;;;;;;15.90;6.28;;;3.70;99.90;;;8.06;100.00;99952.25;5358233;26;20006;-81
2024/04/17 04:31:25;;;;;;;16.98;5.90;;;3.60;99.90;;;7.99;100.00;99953.34;5367293;26;20016;-82
2024/04/17 04:33:53;;;;;;;20.33;6.25;;;3.60;99.90;;;7.94;100.00;99923.25;5324823;26;20005;-80
2024/04/17 04:36:19;;;;;;;16.23;5.97;;;3.50;99.90;;;7.93;100.00;99949.59;5347770;26;20005;-79
2024/04/17 04:38:45;;;;;;;20.33;6.85;;;3.60;99.90;;;7.49;100.00;99936.63;5346338;26;19998;-80
2024/04/17 04:41:12;;;;;;;21.15;7.22;;;3.70;99.90;;;7.03;100.00;99932.97;5323267;26;20016;-81
2024/04/17 04:43:38;;;;;;;23.58;6.68;;;3.70;99.90;;;7.34;100.00;99909.72;5320656;26;20195;-79
2024/04/17 04:46:05;;;;;;;23.60;6.28;;;3.80;99.90;;;7.32;100.00;99949.00;5370518;26;20011;-82
2024/04/17 04:48:32;;;;;;;22.55;6.45;;;3.80;99.90;;;8.09;100.00;99967.28;5342995;26;20073;-81
2024/04/17 04:50:59;;;;;;;23.00;6.80;;;3.90;99.90;;;8.01;100.00;99956.69;5393975;26;20001;-82
2024/04/17 04:53:25;;;;;;;22.40;6.53;;;4.00;99.90;;;7.82;100.00;99959.25;5334171;26;19994;-82
2024/04/17 04:56:04;;;;;;;26.13;6.68;;;4.10;99.90;;;8.21;100.00;99956.56;5363649;26;20009;-82
2024/04/17 04:58:31;;;;;;;;;;;4.10;99.90;;;8.12;100.00;99949.72;5342630;26;19996;-80
2024/04/17 05:00:58;;;;;;;19.17;6.95;;;4.10;99.90;;;8.06;100.00;99960.38;5331050;26;19998;-81
2024/04/17 05:03:24;;;;;;;22.92;6.93;;;4.10;99.90;;;7.59;100.00;99952.44;5315381;26;20001;-81
2024/04/17 05:05:51;;;;;;;24.15;7.05;;;4.10;99.90;;;7.33;100.00;99954.19;5350287;26;20047;-82
2024/04/17 05:08:19;;;;;;;19.83;6.57;;;4.20;99.90;;;7.86;100.00;99959.69;5364212;26;20075;-84
2024/04/17 05:10:46;;;;;;;18.48;6.50;;;4.20;99.90;;;7.85;100.00;99937.09;5342172;26;20006;-83
2024/04/17 05:13:12;;;;;;;16.85;6.53;;;4.20;99.90;;;7.10;100.00;99953.81;5349912;26;20010;-83
2024/04/17 05:15:39;;;;;;;19.05;6.57;;;4.30;99.90;;;7.30;100.00;99960.06;5343549;26;20002;-84
2024/04/17 05:18:06;;;;;;;17.85;6.47;;;4.30;99.90;;;7.57;100.00;99946.41;5337381;26;20302;-82
2024/04/17 05:20:33;;;;;;;19.42;5.90;;;4.40;99.90;;;7.31;100.00;99972.56;5359579;26;20210;-84
2024/04/17 05:23:00;;;;;;;19.00;5.93;;;4.40;99.90;;;7.22;100.00;99981.13;5384999;26;20076;-83
2024/04/17 05:25:27;;;;;;;17.33;5.18;;;4.40;99.90;;;7.43;100.00;99966.50;5356370;26;20433;-85
2024/04/17 05:27:54;;;;;;;18.67;5.00;;;4.40;99.90;;;7.78;100.00;99979.75;5382083;26;20013;-81
2024/04/17 05:30:22;;;;;;;17.92;5.70;;;4.40;99.90;;;7.57;100.00;99978.97;5323240;26;20005;-82
2024/04/17 05:32:50;;;;;;;16.45;5.20;;;4.30;99.90;;;7.32;100.00;99966.09;5368773;26;20001;-83
2024/04/17 05:35:17;;;;;;;18.70;5.20;;;4.40;99.90;;;7.70;100.00;99967.25;5379458;26;20001;-83
2024/04/17 05:37:44;;;;;;;16.38;5.45;;;4.40;99.90;;;8.05;100.00;99942.44;5311567;26;20002;-81
2024/04/17 05:40:11;;;;;;;14.75;5.30;;;4.40;99.90;;;7.16;100.00;99948.38;5359750;26;20001;-84
2024/04/17 05:42:37;;;;;;;20.02;4.88;;;4.40;99.90;;;7.08;100.00;99934.22;5362400;26;20041;-83
2024/04/17 05:45:05;;;;;;;13.98;4.38;;;4.40;99.90;;;7.77;100.00;99984.34;5385673;26;20010;-82
2024/04/17 05:47:32;;;;;;;16.92;5.07;;;4.40;99.90;;;7.54;100.00;99965.00;5313079;26;20011;-81
2024/04/17 05:49:58;;;;;;;17.70;5.13;;;4.50;99.90;;;8.21;100.00;99965.53;5351306;26;20074;-82
2024/04/17 05:52:24;;;;;;;17.27;5.30;;;4.60;99.90;;;8.07;100.00;99989.22;5343638;26;20005;-82
2024/04/17 05:54:51;;;;;;;19.02;4.93;;;4.80;99.90;;;8.12;100.00;99985.88;5355164;26;20009;-82
2024/04/17 05:57:18;;;;;;;16.05;4.70;;;4.80;99.90;;;8.59;100.00;99996.47;5325486;26;20014;-83
2024/04/17 05:59:45;;;;;;;15.07;4.13;;;5.00;99.90;;;8.46;100.00;99996.56;5385179;26;20097;-84
2024/04/17 06:02:13;;;;;;;16.08;4.88;;;5.20;99.90;;;8.50;100.00;100003.25;5292472;26;20017;-83
2024/04/17 06:04:40;;;;;;;14.35;4.30;;;5.30;99.90;;;8.05;100.00;99974.22;5377712;26;19997;-83
2024/04/17 06:07:07;;;;;;;15.00;4.60;;;5.30;99.90;;;8.69;100.00;99963.38;5319693;26;20014;-84
2024/04/17 06:09:35;;;;;;;11.17;3.80;;;5.60;99.90;;;8.31;100.00;99996.84;5327605;26;19997;-85
2024/04/17 06:12:02;;;;;;;14.60;4.05;;;5.60;99.90;;;8.20;100.00;99998.38;5374858;26;20453;-82
2024/04/17 06:14:29;;;;;;;11.68;3.53;;;5.70;99.90;;;8.42;100.00;100011.63;5313124;26;20430;-86
2024/04/17 06:16:56;;;;;;;12.77;4.15;;;5.70;99.90;;;8.70;100.00;100000.38;5373645;26;20035;-82
2024/04/17 06:19:23;;;;;;;12.32;3.83;;;5.90;99.90;;;9.03;100.00;99982.13;5339430;26;20009;-84
2024/04/17 06:21:50;;;;;;;10.82;4.00;;;6.00;99.90;;;8.75;100.00;99999.72;5391679;26;20301;-84
2024/04/17 06:24:17;;;;;;;13.15;3.30;;;6.20;99.90;;;9.43;100.00;100011.72;5385040;26;20461;-84
2024/04/17 06:26:44;;;;;;;10.93;3.53;;;6.30;99.90;;;9.40;100.00;100012.13;5372389;26;20407;-83
2024/04/17 06:29:10;;;;;;;11.90;3.30;;;6.40;99.90;;;9.81;100.00;100004.38;5365002;26;20001;-85
2024/04/17 06:31:38;;;;;;;16.58;3.85;;;6.50;99.90;;;9.44;100.00;100002.50;5332425;26;20005;-84
2024/04/17 06:34:05;;;;;;;12.63;2.95;;;6.40;99.90;;;9.14;100.00;100016.78;5320986;26;20004;-83
2024/04/17 06:36:33;;;;;;;17.15;4.05;;;6.20;99.90;;;8.49;100.00;100020.59;5388978;26;20013;-83
2024/04/17 06:39:01;;;;;;;15.73;3.67;;;6.00;99.90;;;9.44;100.00;99982.59;5324151;26;20005;-84
2024/04/17 06:41:29;;;;;;;24.52;4.63;;;6.00;99.90;;;8.98;100.00;100020.88;5314784;26;20337;-83
2024/04/17 06:43:56;;;;;;;20.45;4.32;;;6.00;99.90;;;9.24;100.00;100013.56;5383660;26;20441;-84
2024/04/17 06:46:23;;;;;;;11.55;3.47;;;5.80;99.90;;;8.30;100.00;100000.63;5342496;26;20093;-84
2024/04/17 06:48:54;;;;;;;;;;;5.70;99.90;;;8.33;100.00;100028.19;5325050;26;20052;-83
2024/04/17 06:51:21;;;;;;;12.85;3.10;;;5.70;99.90;;;8.38;100.00;100024.81;5341849;26;19937;-84
2024/04/17 06:53:51;;;;;;;14.93;3.10;;;5.70;99.90;;;8.92;100.00;100038.09;5375519;26;20031;-81
2024/04/17 06:56:30;;;;;;;8.18;3.28;;;5.80;99.90;;;8.88;100.00;100026.81;5362017;26;20001;-86
2024/04/17 06:58:57;;;;;;;11.25;3.20;;;5.70;99.90;;;8.87;100.00;99992.50;5346646;26;19997;-83
2024/04/17 07:01:24;;;;;;;13.30;3.72;;;5.80;99.90;;;9.85;100.00;100013.78;5386708;26;20012;-83
2024/04/17 07:03:52;;;;;;;14.63;3.83;;;5.90;99.90;;;9.48;100.00;100028.22;5347058;26;19997;-82
2024/04/17 07:06:19;;;;;;;14.70;3.75;;;6.00;99.90;;;8.74;100.00;100015.19;5356223;26;20002;-81
2024/04/17 07:08:45;;;;;;;13.18;3.70;;;5.90;99.90;;;9.79;100.00;100025.56;5365764;26;20002;-83
2024/04/17 07:11:12;;;;;;;13.07;3.70;;;6.10;99.90;;;9.52;100.00;100044.09;5357025;26;20012;-85
2024/04/17 07:13:40;;;;;;;9.30;2.78;;;6.10;99.90;;;9.82;100.00;100043.34;5348754;26;20007;-86
2024/04/17 07:16:11;;;;;;;10.13;3.83;;;6.10;99.90;;;9.58;100.00;100043.19;5348283;26;20408;-83
2024/04/17 07:18:37;;;;;;;13.30;3.50;;;6.10;99.90;;;8.82;100.00;100021.44;5342099;26;20008;-81
2024/04/17 07:21:04;;;;;;;11.43;3.40;;;6.10;99.90;;;9.16;100.00;100039.19;5345059;26;20012;-81
2024/04/17 07:23:31;;;;;;;9.10;3.42;;;6.00;99.90;;;9.09;100.00;100003.00;5324097;26;20029;-80
2024/04/17 07:25:58;;;;;;;16.70;3.58;;;6.00;99.90;;;9.57;100.00;100012.41;5316376;26;20449;-82
2024/04/17 07:28:25;;;;;;;12.02;3.28;;;6.10;99.90;;;10.00;100.00;99999.75;5369967;26;20013;-83
2024/04/17 07:30:52;;;;;;;12.05;4.75;;;6.10;99.90;;;10.58;100.00;100033.00;5357738;26;20009;-85
2024/04/17 07:33:19;;;;;;;12.60;4.30;;;6.20;99.90;;;10.94;99.46;100041.28;5350318;26;20009;-81
2024/04/17 07:35:46;;;;;;;10.23;3.60;;;6.30;99.90;;;10.75;96.69;100010.53;5354189;26;20012;-85
2024/04/17 07:38:13;;;;;;;11.82;3.58;;;6.40;99.90;;;11.29;93.70;100015.09;5344418;26;20009;-83
2024/04/17 07:40:39;;;;;;;15.30;3.70;;;6.60;99.90;;;11.64;90.17;100036.09;5349968;26;20337;-85
2024/04/17 07:43:06;;;;;;;15.15;3.67;;;6.80;99.90;;;11.80;86.39;100018.97;5377892;26;19993;-84
2024/04/17 07:45:33;;;;;;;11.88;3.60;;;7.00;99.90;;;10.50;88.68;100033.31;5390370;26;20002;-83
2024/04/17 07:48:00;;;;;;;12.73;3.50;;;7.10;99.90;;;11.39;92.01;100041.78;5381858;26;19998;-83
2024/04/17 07:50:27;;;;;;;10.75;4.18;;;7.20;99.90;;;11.88;87.37;100050.56;5330312;26;20291;-82
2024/04/17 07:52:53;;;;;;;11.48;3.83;;;7.30;99.90;;;12.41;85.21;100042.34;5350684;26;19996;-80
2024/04/17 07:55:19;;;;;;;13.90;3.78;;;7.50;99.90;;;11.83;81.12;100027.78;5357328;26;20021;-83
2024/04/17 07:57:47;;;;;;;9.30;3.38;;;7.70;99.90;;;11.04;83.21;100000.59;5358404;26;19996;-81
2024/04/17 08:00:14;;;;;;;10.27;2.42;;;7.60;99.90;;;11.92;79.78;100013.47;5324164;26;20020;-80
2024/04/17 08:02:45;;;;;;;13.80;3.90;;;7.70;99.90;;;12.26;77.50;100006.53;5344654;26;19997;-81
2024/04/17 08:05:12;;;;;;;10.25;3.38;;;7.80;99.90;;;10.63;83.59;100056.84;5328916;26;20008;-82
2024/04/17 08:07:38;;;;;;;10.68;3.10;;;7.60;99.90;;;10.48;91.05;100025.38;5331646;26;20008;-83
2024/04/17 08:10:07;;;;;;;9.35;3.15;;;7.40;99.90;;;10.53;90.23;100037.47;5336328;26;20016;-85
2024/04/17 08:12:36;;;;;;;;;;;7.40;99.90;;;10.56;91.71;100067.00;5368785;26;20514;-84
2024/04/17 08:15:03;;;;;;;15.20;3.00;;;7.30;99.90;;;10.70;89.68;100063.03;5358388;26;19927;-86
2024/04/17 08:17:30;;;;;;;12.40;3.35;;;7.40;99.90;;;11.53;87.55;100048.69;5368467;26;20009;-83
2024/04/17 08:19:58;;;;;;;10.98;3.60;;;7.60;99.90;;;11.98;83.87;100049.13;5342237;26;20043;-83
2024/04/17 08:22:25;;;;;;;10.65;3.13;;;7.80;99.90;;;11.28;81.52;100041.56;5362886;26;20456;-84
2024/04/17 08:24:52;;;;;;;6.90;2.93;;;8.10;99.90;;;13.12;79.35;100056.75;5342600;26;20009;-84
2024/04/17 08:27:19;;;;;;;10.48;3.35;;;8.60;99.90;;;13.12;74.12;100037.59;5348575;26;19998;-82
2024/04/17 08:29:47;;;;;;;8.27;2.83;;;9.00;99.90;;;13.39;70.31;100026.78;5358118;26;20001;-83
2024/04/17 08:32:15;;;;;;;9.30;2.70;;;9.50;99.90;;;14.15;65.93;100038.25;5376307;26;20665;-83
2024/04/17 08:34:43;;;;;;;9.77;3.10;;;9.80;99.90;;;13.26;67.90;100041.66;5361149;26;20013;-82
2024/04/17 08:37:09;;;;;;;12.15;3.45;;;9.60;99.90;;;12.09;71.33;100045.56;5328653;26;20000;-86
2024/04/17 08:39:36;;;;;;;8.38;2.70;;;9.40;99.90;;;11.38;77.76;100021.84;5352520;26;20001;-83
2024/04/17 08:42:09;;;;;;;11.30;3.03;;;8.80;99.90;;;12.65;76.23;100023.09;5398014;26;20118;-83
2024/04/17 08:44:42;;;;;;;8.25;3.10;;;8.80;99.90;;;12.79;69.23;100043.63;5352859;26;20011;-84
2024/04/17 08:47:11;;;;;;;10.70;3.05;;;9.10;99.90;;;12.16;71.44;100023.56;5374322;26;20001;-86
2024/04/17 08:49:40;;;;;;;10.88;2.50;;;9.20;99.90;;;12.01;73.59;100059.59;5344090;26;19997;-84
2024/04/17 08:52:09;;;;;;;;;;;9.00;99.90;;;11.88;73.45;100012.28;5322041;26;20001;-91
2024/04/17 08:54:40;;;;;;;;;;;8.80;99.90;;;13.19;69.76;100040.97;5358467;26;19926;-83
2024/04/17 08:57:11;;;;;;;8.85;3.08;;;9.10;99.90;;;12.68;72.01;100047.22;5374131;26;19926;-86
2024/04/17 08:59:37;;;;;;;10.63;3.08;;;9.10;99.90;;;12.82;69.11;100022.31;5357195;26;20075;-84
2024/04/17 09:02:14;;;;;;;8.75;3.47;;;9.20;99.90;;;14.56;66.40;100038.72;5378952;26;20006;-86
2024/04/17 09:04:46;;;;;;;10.63;3.70;;;;;;;15.37;64.42;100036.16;5361813;26;20597;-88
2024/04/17 09:07:18;;;;;;;12.02;3.13;;;;;;;16.54;61.20;100037.00;5368163;26;20008;-90
2024/04/17 09:09:47;;;;;;;10.52;4.22;;;;;;;16.70;64.23;100048.03;5357952;26;20088;-88
2024/04/17 09:12:15;;;;;;;12.13;4.05;;;;;;;16.07;64.66;100046.22;5371791;26;20000;-87
2024/04/17 09:14:43;;;;;;;11.35;3.42;;;;;;;16.74;64.24;100054.69;5350041;26;20356;-90
2024/04/17 09:17:11;;;;;;;9.98;3.30;;;;;;;17.78;57.49;100032.63;5409429;26;20034;-88
2024/04/17 09:19:38;;;;;;;9.00;2.58;;;;;;;18.18;54.39;100017.03;5350314;26;20395;-85
2024/04/17 09:22:06;;;;;;;10.70;2.72;;;;;;;17.59;53.21;100011.16;5349031;26;20018;-83
2024/04/17 09:24:40;;;;;;;9.37;2.40;;;10.00;99.90;;;16.48;52.43;99991.31;5374669;26;19996;-88
2024/04/17 09:27:17;;;;;;;9.10;2.38;;;13.30;99.90;;;16.56;52.01;99973.41;5323728;26;20235;-88
2024/04/17 09:29:44;;;;;;;8.77;2.55;;;13.00;99.90;;;16.16;52.23;99958.47;5391109;26;19997;-85
2024/04/17 09:32:18;;;;;;;10.07;2.85;;;12.80;99.90;;;16.57;55.56;100016.34;5334563;26;20008;-88
2024/04/17 09:34:48;;;;;;;9.93;3.30;;;12.50;99.90;;;15.84;60.43;100026.25;5400058;26;20012;-88
2024/04/17 09:37:26;;;;;;;11.57;3.88;;;12.10;99.90;;;16.00;61.81;100048.38;5406657;26;20005;-90
2024/04/17 09:40:12;;;;;;;9.18;4.15;;;11.70;99.90;;;14.73;63.66;100013.13;5394144;26;20008;-84
2024/04/17 09:42:42;;;;;;;15.48;4.80;;;11.30;99.90;;;13.98;66.84;100025.44;5361430;26;20005;-82
2024/04/17 09:45:19;;;;;;;12.30;5.47;;;10.80;99.90;;;12.85;77.67;100039.03;5340063;26;20334;-82
2024/04/17 09:47:49;;;;;;;17.25;6.00;;;10.20;99.90;;;12.47;83.98;100071.50;5326649;26;20449;-85
2024/04/17 09:50:21;;;;;;;11.07;7.13;;;9.80;99.90;;;12.32;87.81;100041.09;5389671;26;20005;-82
2024/04/17 09:52:54;;;;;;;14.18;6.45;;;9.50;99.90;;;12.32;81.35;100030.16;5397554;26;20000;-82
2024/04/17 09:55:22;;;;;;;13.88;6.45;;;9.40;99.90;;;12.51;83.96;100048.03;5394740;26;20008;-85
2024/04/17 09:57:54;;;;;;;12.07;7.15;;;9.30;99.90;;;12.45;87.07;100024.38;5345347;26;20702;-86
2024/04/17 10:00:22;;;;;;;14.82;8.57;;;9.40;99.90;;;12.40;89.02;100065.31;5413399;26;20403;-84
2024/04/17 10:02:53;;;;;;;16.77;7.88;;;9.30;99.90;;;12.54;87.16;100051.38;5381050;26;20000;-85
2024/04/17 10:05:25;;;;;;;13.60;8.48;;;9.10;99.90;;;12.50;87.96;100027.22;5345905;26;20018;-86
2024/04/17 10:07:53;;;;;;;12.35;7.15;;;9.10;99.90;;;12.47;88.07;100046.03;5351002;26;20034;-84
2024/04/17 10:10:27;;;;;;;14.75;7.05;;;9.00;99.90;;;12.86;86.66;100045.38;5399380;26;19997;-84
2024/04/17 10:12:56;;;;;;;13.38;7.05;;;8.80;99.90;;;11.65;90.10;100007.69;5354855;26;19998;-80
2024/04/17 10:15:23;;;;;;;20.25;8.30;;;8.60;99.90;;;11.67;97.79;100019.22;5374414;26;20002;-81
2024/04/17 10:17:50;;;;;;;4.85;2.30;;;8.40;99.90;;;10.93;76.25;100039.63;5346993;26;20005;-79
2024/04/17 10:20:30;;;;;;;6.18;2.50;;;8.20;99.90;;;10.72;70.73;100032.78;5344702;26;20016;-80